sensor_id;sensor_type;location;lat;lon;timestamp;P1;durP1;ratioP1;P2;durP2;ratioP2
26989;SDS011;14537;47.788;11.858;2024-01-10T00:01:58;55.92;;;16.17;;
26989;SDS011;14537;47.788;11.858;2024-01-10T00:04:23;57.00;;;17.60;;
26989;SDS011;14537;47.788;11.858;2024-01-10T00:06:49;47.05;;;13.98;;
26989;SDS011;14537;47.788;11.858;2024-01-10T00:09:15;56.38;;;16.40;;
26989;SDS011;14537;47.788;11.858;2024-01-10T00:11:40;38.60;;;13.93;;
26989;SDS011;14537;47.788;11.858;2024-01-10T00:14:06;40.38;;;13.82;;
26989;SDS011;14537;47.788;11.858;2024-01-10T00:16:32;48.85;;;14.73;;
26989;SDS011;14537;47.788;11.858;2024-01-10T00:18:57;55.60;;;16.27;;
26989;SDS011;14537;47.788;11.858;2024-01-10T00:21:23;53.22;;;16.63;;
26989;SDS011;14537;47.788;11.858;2024-01-10T00:23:48;49.10;;;16.42;;
26989;SDS011;14537;47.788;11.858;2024-01-10T00:26:14;55.38;;;16.13;;
26989;SDS011;14537;47.788;11.858;2024-01-10T00:28:40;53.40;;;16.20;;
26989;SDS011;14537;47.788;11.858;2024-01-10T00:31:06;51.13;;;16.38;;
26989;SDS011;14537;47.788;11.858;2024-01-10T00:33:31;43.38;;;13.90;;
26989;SDS011;14537;47.788;11.858;2024-01-10T00:35:57;49.20;;;15.60;;
26989;SDS011;14537;47.788;11.858;2024-01-10T00:38:22;48.67;;;16.20;;
26989;SDS011;14537;47.788;11.858;2024-01-10T00:40:48;58.92;;;16.05;;
26989;SDS011;14537;47.788;11.858;2024-01-10T00:43:13;65.15;;;18.83;;
26989;SDS011;14537;47.788;11.858;2024-01-10T00:45:39;45.80;;;14.32;;
26989;SDS011;14537;47.788;11.858;2024-01-10T00:48:05;44.03;;;14.07;;
26989;SDS011;14537;47.788;11.858;2024-01-10T00:50:31;66.38;;;17.30;;
26989;SDS011;14537;47.788;11.858;2024-01-10T00:52:56;58.47;;;17.55;;
26989;SDS011;14537;47.788;11.858;2024-01-10T00:55:22;52.63;;;15.35;;
26989;SDS011;14537;47.788;11.858;2024-01-10T00:57:47;51.10;;;15.95;;
26989;SDS011;14537;47.788;11.858;2024-01-10T01:00:13;49.28;;;14.55;;
26989;SDS011;14537;47.788;11.858;2024-01-10T01:02:39;53.42;;;16.45;;
26989;SDS011;14537;47.788;11.858;2024-01-10T01:05:05;59.33;;;16.83;;
26989;SDS011;14537;47.788;11.858;2024-01-10T01:07:32;56.35;;;17.95;;
26989;SDS011;14537;47.788;11.858;2024-01-10T01:09:58;45.05;;;15.73;;
26989;SDS011;14537;47.788;11.858;2024-01-10T01:12:23;59.60;;;15.13;;
26989;SDS011;14537;47.788;11.858;2024-01-10T01:14:49;54.53;;;16.00;;
26989;SDS011;14537;47.788;11.858;2024-01-10T01:17:14;60.97;;;16.95;;
26989;SDS011;14537;47.788;11.858;2024-01-10T01:19:40;51.33;;;15.73;;
26989;SDS011;14537;47.788;11.858;2024-01-10T01:22:06;48.60;;;16.92;;
26989;SDS011;14537;47.788;11.858;2024-01-10T01:24:31;52.05;;;16.02;;
26989;SDS011;14537;47.788;11.858;2024-01-10T01:26:57;59.17;;;15.43;;
26989;SDS011;14537;47.788;11.858;2024-01-10T01:29:22;57.45;;;15.73;;
26989;SDS011;14537;47.788;11.858;2024-01-10T01:31:49;39.30;;;14.13;;
26989;SDS011;14537;47.788;11.858;2024-01-10T01:34:15;49.60;;;16.45;;
26989;SDS011;14537;47.788;11.858;2024-01-10T01:36:40;62.45;;;17.35;;
26989;SDS011;14537;47.788;11.858;2024-01-10T01:39:06;48.25;;;14.23;;
26989;SDS011;14537;47.788;11.858;2024-01-10T01:41:31;61.00;;;16.75;;
26989;SDS011;14537;47.788;11.858;2024-01-10T01:43:57;60.00;;;17.75;;
26989;SDS011;14537;47.788;11.858;2024-01-10T01:46:23;58.03;;;17.98;;
26989;SDS011;14537;47.788;11.858;2024-01-10T01:48:49;60.05;;;18.13;;
26989;SDS011;14537;47.788;11.858;2024-01-10T01:51:15;59.88;;;16.45;;
26989;SDS011;14537;47.788;11.858;2024-01-10T01:53:46;51.20;;;16.65;;
26989;SDS011;14537;47.788;11.858;2024-01-10T01:56:13;49.58;;;15.43;;
26989;SDS011;14537;47.788;11.858;2024-01-10T01:58:40;45.75;;;14.80;;
26989;SDS011;14537;47.788;11.858;2024-01-10T02:01:08;60.38;;;17.52;;
26989;SDS011;14537;47.788;11.858;2024-01-10T02:03:35;68.65;;;16.85;;
26989;SDS011;14537;47.788;11.858;2024-01-10T02:06:01;50.50;;;15.45;;
26989;SDS011;14537;47.788;11.858;2024-01-10T02:08:32;54.05;;;16.63;;
26989;SDS011;14537;47.788;11.858;2024-01-10T02:10:59;56.45;;;16.27;;
26989;SDS011;14537;47.788;11.858;2024-01-10T02:13:26;51.53;;;16.20;;
26989;SDS011;14537;47.788;11.858;2024-01-10T02:15:52;44.85;;;14.90;;
26989;SDS011;14537;47.788;11.858;2024-01-10T02:18:19;57.08;;;15.90;;
26989;SDS011;14537;47.788;11.858;2024-01-10T02:20:45;47.17;;;16.20;;
26989;SDS011;14537;47.788;11.858;2024-01-10T02:23:10;54.20;;;16.25;;
26989;SDS011;14537;47.788;11.858;2024-01-10T02:25:37;52.90;;;16.15;;
26989;SDS011;14537;47.788;11.858;2024-01-10T02:28:04;57.42;;;16.92;;
26989;SDS011;14537;47.788;11.858;2024-01-10T02:30:30;62.47;;;17.83;;
26989;SDS011;14537;47.788;11.858;2024-01-10T02:32:55;50.22;;;15.25;;
26989;SDS011;14537;47.788;11.858;2024-01-10T02:35:21;63.58;;;16.17;;
26989;SDS011;14537;47.788;11.858;2024-01-10T02:37:46;51.90;;;17.75;;
26989;SDS011;14537;47.788;11.858;2024-01-10T02:40:15;50.58;;;16.17;;
26989;SDS011;14537;47.788;11.858;2024-01-10T02:42:41;54.10;;;15.93;;
26989;SDS011;14537;47.788;11.858;2024-01-10T02:45:07;50.92;;;17.20;;
26989;SDS011;14537;47.788;11.858;2024-01-10T02:47:32;53.35;;;18.13;;
26989;SDS011;14537;47.788;11.858;2024-01-10T02:49:58;59.22;;;17.92;;
26989;SDS011;14537;47.788;11.858;2024-01-10T02:52:24;53.33;;;16.50;;
26989;SDS011;14537;47.788;11.858;2024-01-10T02:54:49;54.78;;;16.23;;
26989;SDS011;14537;47.788;11.858;2024-01-10T02:57:15;56.97;;;16.40;;
26989;SDS011;14537;47.788;11.858;2024-01-10T02:59:40;44.33;;;14.02;;
26989;SDS011;14537;47.788;11.858;2024-01-10T03:02:06;59.72;;;17.00;;
26989;SDS011;14537;47.788;11.858;2024-01-10T03:04:31;64.55;;;16.75;;
26989;SDS011;14537;47.788;11.858;2024-01-10T03:06:57;61.17;;;17.27;;
26989;SDS011;14537;47.788;11.858;2024-01-10T03:09:23;52.97;;;15.55;;
26989;SDS011;14537;47.788;11.858;2024-01-10T03:11:49;54.88;;;15.68;;
26989;SDS011;14537;47.788;11.858;2024-01-10T03:14:14;42.10;;;15.05;;
26989;SDS011;14537;47.788;11.858;2024-01-10T03:16:40;44.13;;;15.02;;
26989;SDS011;14537;47.788;11.858;2024-01-10T03:19:06;60.00;;;16.13;;
26989;SDS011;14537;47.788;11.858;2024-01-10T03:21:31;51.67;;;16.20;;
26989;SDS011;14537;47.788;11.858;2024-01-10T03:23:57;53.28;;;17.55;;
26989;SDS011;14537;47.788;11.858;2024-01-10T03:26:24;65.53;;;16.48;;
26989;SDS011;14537;47.788;11.858;2024-01-10T03:28:50;61.17;;;16.70;;
26989;SDS011;14537;47.788;11.858;2024-01-10T03:31:16;58.58;;;16.23;;
26989;SDS011;14537;47.788;11.858;2024-01-10T03:33:42;63.78;;;18.42;;
26989;SDS011;14537;47.788;11.858;2024-01-10T03:36:11;57.42;;;16.23;;
26989;SDS011;14537;47.788;11.858;2024-01-10T03:38:38;55.65;;;16.95;;
26989;SDS011;14537;47.788;11.858;2024-01-10T03:41:04;46.05;;;14.70;;
26989;SDS011;14537;47.788;11.858;2024-01-10T03:43:30;47.97;;;16.17;;
26989;SDS011;14537;47.788;11.858;2024-01-10T03:45:56;48.47;;;15.40;;
26989;SDS011;14537;47.788;11.858;2024-01-10T03:48:22;49.15;;;14.95;;
26989;SDS011;14537;47.788;11.858;2024-01-10T03:50:48;58.22;;;16.65;;
26989;SDS011;14537;47.788;11.858;2024-01-10T03:53:14;48.20;;;14.68;;
26989;SDS011;14537;47.788;11.858;2024-01-10T03:55:39;43.50;;;14.35;;
26989;SDS011;14537;47.788;11.858;2024-01-10T03:58:05;52.10;;;16.70;;
26989;SDS011;14537;47.788;11.858;2024-01-10T04:00:31;49.40;;;14.93;;
26989;SDS011;14537;47.788;11.858;2024-01-10T04:02:56;45.25;;;14.50;;
26989;SDS011;14537;47.788;11.858;2024-01-10T04:05:22;54.28;;;14.35;;
26989;SDS011;14537;47.788;11.858;2024-01-10T04:07:49;42.58;;;14.95;;
26989;SDS011;14537;47.788;11.858;2024-01-10T04:10:16;58.80;;;16.42;;
26989;SDS011;14537;47.788;11.858;2024-01-10T04:12:42;52.55;;;14.15;;
26989;SDS011;14537;47.788;11.858;2024-01-10T04:15:08;53.70;;;14.82;;
26989;SDS011;14537;47.788;11.858;2024-01-10T04:17:34;45.83;;;15.07;;
26989;SDS011;14537;47.788;11.858;2024-01-10T04:20:00;46.92;;;14.65;;
26989;SDS011;14537;47.788;11.858;2024-01-10T04:22:26;60.30;;;14.45;;
26989;SDS011;14537;47.788;11.858;2024-01-10T04:24:52;45.58;;;13.40;;
26989;SDS011;14537;47.788;11.858;2024-01-10T04:27:17;55.97;;;14.38;;
26989;SDS011;14537;47.788;11.858;2024-01-10T04:29:43;49.88;;;14.65;;
26989;SDS011;14537;47.788;11.858;2024-01-10T04:32:09;47.78;;;13.27;;
26989;SDS011;14537;47.788;11.858;2024-01-10T04:34:35;33.17;;;12.82;;
26989;SDS011;14537;47.788;11.858;2024-01-10T04:37:01;45.70;;;14.82;;
26989;SDS011;14537;47.788;11.858;2024-01-10T04:39:26;40.90;;;12.77;;
26989;SDS011;14537;47.788;11.858;2024-01-10T04:41:52;36.10;;;12.27;;
26989;SDS011;14537;47.788;11.858;2024-01-10T04:44:18;46.33;;;13.88;;
26989;SDS011;14537;47.788;11.858;2024-01-10T04:46:43;46.40;;;13.75;;
26989;SDS011;14537;47.788;11.858;2024-01-10T04:49:09;42.08;;;13.50;;
26989;SDS011;14537;47.788;11.858;2024-01-10T04:51:35;42.97;;;12.82;;
26989;SDS011;14537;47.788;11.858;2024-01-10T04:54:00;37.83;;;12.80;;
26989;SDS011;14537;47.788;11.858;2024-01-10T04:56:26;48.85;;;13.93;;
26989;SDS011;14537;47.788;11.858;2024-01-10T04:58:51;41.95;;;13.00;;
26989;SDS011;14537;47.788;11.858;2024-01-10T05:01:17;41.92;;;13.93;;
26989;SDS011;14537;47.788;11.858;2024-01-10T05:03:43;38.53;;;12.02;;
26989;SDS011;14537;47.788;11.858;2024-01-10T05:06:09;49.05;;;14.43;;
26989;SDS011;14537;47.788;11.858;2024-01-10T05:08:34;53.85;;;14.07;;
26989;SDS011;14537;47.788;11.858;2024-01-10T05:11:00;49.25;;;14.73;;
26989;SDS011;14537;47.788;11.858;2024-01-10T05:13:26;31.90;;;12.13;;
26989;SDS011;14537;47.788;11.858;2024-01-10T05:15:51;43.00;;;11.95;;
26989;SDS011;14537;47.788;11.858;2024-01-10T05:18:17;50.65;;;15.32;;
26989;SDS011;14537;47.788;11.858;2024-01-10T05:20:43;33.35;;;11.32;;
26989;SDS011;14537;47.788;11.858;2024-01-10T05:23:09;48.70;;;12.40;;
26989;SDS011;14537;47.788;11.858;2024-01-10T05:25:35;31.48;;;10.13;;
26989;SDS011;14537;47.788;11.858;2024-01-10T05:28:01;35.22;;;12.38;;
26989;SDS011;14537;47.788;11.858;2024-01-10T05:30:27;39.33;;;12.07;;
26989;SDS011;14537;47.788;11.858;2024-01-10T05:32:52;33.72;;;13.27;;
26989;SDS011;14537;47.788;11.858;2024-01-10T05:35:18;36.45;;;11.55;;
26989;SDS011;14537;47.788;11.858;2024-01-10T05:37:43;31.80;;;11.30;;
26989;SDS011;14537;47.788;11.858;2024-01-10T05:40:09;33.92;;;10.40;;
26989;SDS011;14537;47.788;11.858;2024-01-10T05:42:35;35.88;;;11.18;;
26989;SDS011;14537;47.788;11.858;2024-01-10T05:45:02;33.97;;;11.23;;
26989;SDS011;14537;47.788;11.858;2024-01-10T05:47:29;34.33;;;10.95;;
26989;SDS011;14537;47.788;11.858;2024-01-10T05:49:54;44.90;;;13.55;;
26989;SDS011;14537;47.788;11.858;2024-01-10T05:52:20;39.70;;;11.80;;
26989;SDS011;14537;47.788;11.858;2024-01-10T05:54:47;33.95;;;11.98;;
26989;SDS011;14537;47.788;11.858;2024-01-10T05:57:13;37.25;;;13.18;;
26989;SDS011;14537;47.788;11.858;2024-01-10T05:59:42;38.60;;;12.00;;
26989;SDS011;14537;47.788;11.858;2024-01-10T06:02:07;37.90;;;11.70;;
26989;SDS011;14537;47.788;11.858;2024-01-10T06:04:33;36.25;;;12.13;;
26989;SDS011;14537;47.788;11.858;2024-01-10T06:06:58;37.40;;;11.70;;
26989;SDS011;14537;47.788;11.858;2024-01-10T06:09:24;30.90;;;10.30;;
26989;SDS011;14537;47.788;11.858;2024-01-10T06:11:50;38.25;;;13.45;;
26989;SDS011;14537;47.788;11.858;2024-01-10T06:14:16;36.83;;;11.05;;
26989;SDS011;14537;47.788;11.858;2024-01-10T06:16:41;33.85;;;12.73;;
26989;SDS011;14537;47.788;11.858;2024-01-10T06:19:09;33.53;;;10.50;;
26989;SDS011;14537;47.788;11.858;2024-01-10T06:21:38;36.10;;;10.15;;
26989;SDS011;14537;47.788;11.858;2024-01-10T06:24:04;35.30;;;12.10;;
26989;SDS011;14537;47.788;11.858;2024-01-10T06:26:29;32.30;;;11.25;;
26989;SDS011;14537;47.788;11.858;2024-01-10T06:28:55;42.60;;;13.60;;
26989;SDS011;14537;47.788;11.858;2024-01-10T06:31:21;34.28;;;12.95;;
26989;SDS011;14537;47.788;11.858;2024-01-10T06:33:46;46.55;;;14.70;;
26989;SDS011;14537;47.788;11.858;2024-01-10T06:36:12;31.77;;;11.85;;
26989;SDS011;14537;47.788;11.858;2024-01-10T06:38:39;37.08;;;12.00;;
26989;SDS011;14537;47.788;11.858;2024-01-10T06:41:11;35.90;;;11.02;;
26989;SDS011;14537;47.788;11.858;2024-01-10T06:43:39;30.33;;;10.02;;
26989;SDS011;14537;47.788;11.858;2024-01-10T06:46:05;30.15;;;12.15;;
26989;SDS011;14537;47.788;11.858;2024-01-10T06:48:31;37.17;;;10.52;;
26989;SDS011;14537;47.788;11.858;2024-01-10T06:50:57;34.58;;;10.43;;
26989;SDS011;14537;47.788;11.858;2024-01-10T06:53:23;22.58;;;7.72;;
26989;SDS011;14537;47.788;11.858;2024-01-10T06:55:49;29.48;;;9.40;;
26989;SDS011;14537;47.788;11.858;2024-01-10T06:58:14;30.38;;;11.07;;
26989;SDS011;14537;47.788;11.858;2024-01-10T07:00:40;27.85;;;9.80;;
26989;SDS011;14537;47.788;11.858;2024-01-10T07:03:06;27.30;;;9.35;;
26989;SDS011;14537;47.788;11.858;2024-01-10T07:05:32;41.50;;;11.63;;
26989;SDS011;14537;47.788;11.858;2024-01-10T07:07:58;23.10;;;8.13;;
26989;SDS011;14537;47.788;11.858;2024-01-10T07:10:24;22.30;;;8.43;;
26989;SDS011;14537;47.788;11.858;2024-01-10T07:15:19;18.95;;;7.07;;
26989;SDS011;14537;47.788;11.858;2024-01-10T07:17:45;22.27;;;7.05;;
26989;SDS011;14537;47.788;11.858;2024-01-10T07:20:10;15.73;;;6.80;;
26989;SDS011;14537;47.788;11.858;2024-01-10T07:22:40;31.25;;;9.93;;
26989;SDS011;14537;47.788;11.858;2024-01-10T07:25:07;30.70;;;9.32;;
26989;SDS011;14537;47.788;11.858;2024-01-10T07:27:34;34.60;;;10.02;;
26989;SDS011;14537;47.788;11.858;2024-01-10T07:30:02;33.58;;;10.02;;
26989;SDS011;14537;47.788;11.858;2024-01-10T07:32:30;34.97;;;9.15;;
26989;SDS011;14537;47.788;11.858;2024-01-10T07:34:55;26.63;;;9.40;;
26989;SDS011;14537;47.788;11.858;2024-01-10T07:37:23;28.27;;;8.77;;
26989;SDS011;14537;47.788;11.858;2024-01-10T07:39:48;29.83;;;10.00;;
26989;SDS011;14537;47.788;11.858;2024-01-10T07:42:15;40.13;;;11.23;;
26989;SDS011;14537;47.788;11.858;2024-01-10T07:44:43;36.75;;;11.10;;
26989;SDS011;14537;47.788;11.858;2024-01-10T07:47:08;39.28;;;11.02;;
26989;SDS011;14537;47.788;11.858;2024-01-10T07:49:35;34.35;;;10.60;;
26989;SDS011;14537;47.788;11.858;2024-01-10T07:52:02;31.15;;;11.38;;
26989;SDS011;14537;47.788;11.858;2024-01-10T07:54:29;35.70;;;13.40;;
26989;SDS011;14537;47.788;11.858;2024-01-10T07:56:56;32.17;;;11.00;;
26989;SDS011;14537;47.788;11.858;2024-01-10T07:59:23;50.08;;;13.68;;
26989;SDS011;14537;47.788;11.858;2024-01-10T08:01:56;39.95;;;12.95;;
26989;SDS011;14537;47.788;11.858;2024-01-10T08:04:25;34.30;;;11.13;;
26989;SDS011;14537;47.788;11.858;2024-01-10T08:06:54;40.58;;;12.60;;
26989;SDS011;14537;47.788;11.858;2024-01-10T08:09:20;44.35;;;14.45;;
26989;SDS011;14537;47.788;11.858;2024-01-10T08:11:46;41.28;;;13.65;;
26989;SDS011;14537;47.788;11.858;2024-01-10T08:14:14;45.90;;;15.30;;
26989;SDS011;14537;47.788;11.858;2024-01-10T08:16:40;56.65;;;15.45;;
26989;SDS011;14537;47.788;11.858;2024-01-10T08:19:06;53.60;;;14.20;;
26989;SDS011;14537;47.788;11.858;2024-01-10T08:21:32;51.67;;;16.15;;
26989;SDS011;14537;47.788;11.858;2024-01-10T08:23:58;33.38;;;12.98;;
26989;SDS011;14537;47.788;11.858;2024-01-10T08:26:24;48.08;;;15.05;;
26989;SDS011;14537;47.788;11.858;2024-01-10T08:28:51;49.20;;;16.38;;
26989;SDS011;14537;47.788;11.858;2024-01-10T08:31:17;45.53;;;15.43;;
26989;SDS011;14537;47.788;11.858;2024-01-10T08:33:43;52.45;;;15.02;;
26989;SDS011;14537;47.788;11.858;2024-01-10T08:36:08;47.90;;;16.67;;
26989;SDS011;14537;47.788;11.858;2024-01-10T08:38:37;46.40;;;13.73;;
26989;SDS011;14537;47.788;11.858;2024-01-10T08:41:03;41.35;;;12.75;;
26989;SDS011;14537;47.788;11.858;2024-01-10T08:43:29;32.67;;;11.07;;
26989;SDS011;14537;47.788;11.858;2024-01-10T08:45:55;40.63;;;12.73;;
26989;SDS011;14537;47.788;11.858;2024-01-10T08:48:22;46.72;;;14.43;;
26989;SDS011;14537;47.788;11.858;2024-01-10T08:50:48;39.95;;;12.75;;
26989;SDS011;14537;47.788;11.858;2024-01-10T08:53:15;32.20;;;11.13;;
26989;SDS011;14537;47.788;11.858;2024-01-10T08:55:41;25.58;;;8.38;;
26989;SDS011;14537;47.788;11.858;2024-01-10T08:58:07;27.15;;;9.30;;
26989;SDS011;14537;47.788;11.858;2024-01-10T09:00:32;45.67;;;14.38;;
26989;SDS011;14537;47.788;11.858;2024-01-10T09:02:59;34.78;;;13.40;;
26989;SDS011;14537;47.788;11.858;2024-01-10T09:05:25;28.05;;;9.57;;
26989;SDS011;14537;47.788;11.858;2024-01-10T09:07:51;24.50;;;9.95;;
26989;SDS011;14537;47.788;11.858;2024-01-10T09:10:18;30.23;;;10.20;;
26989;SDS011;14537;47.788;11.858;2024-01-10T09:12:44;32.83;;;10.70;;
26989;SDS011;14537;47.788;11.858;2024-01-10T09:15:11;34.17;;;10.02;;
26989;SDS011;14537;47.788;11.858;2024-01-10T09:17:39;35.38;;;12.40;;
26989;SDS011;14537;47.788;11.858;2024-01-10T09:20:07;29.43;;;11.33;;
26989;SDS011;14537;47.788;11.858;2024-01-10T09:22:33;30.70;;;12.05;;
26989;SDS011;14537;47.788;11.858;2024-01-10T09:24:59;40.42;;;10.63;;
26989;SDS011;14537;47.788;11.858;2024-01-10T09:27:28;32.38;;;10.23;;
26989;SDS011;14537;47.788;11.858;2024-01-10T09:29:55;26.90;;;9.50;;
26989;SDS011;14537;47.788;11.858;2024-01-10T09:32:20;30.40;;;11.63;;
26989;SDS011;14537;47.788;11.858;2024-01-10T09:34:47;35.78;;;10.23;;
26989;SDS011;14537;47.788;11.858;2024-01-10T09:37:12;32.03;;;10.48;;
26989;SDS011;14537;47.788;11.858;2024-01-10T09:39:38;27.67;;;9.60;;
26989;SDS011;14537;47.788;11.858;2024-01-10T09:42:04;35.15;;;10.52;;
26989;SDS011;14537;47.788;11.858;2024-01-10T09:44:31;30.48;;;10.40;;
26989;SDS011;14537;47.788;11.858;2024-01-10T09:46:58;21.27;;;9.20;;
26989;SDS011;14537;47.788;11.858;2024-01-10T09:49:24;41.08;;;11.98;;
26989;SDS011;14537;47.788;11.858;2024-01-10T09:51:51;31.27;;;11.75;;
26989;SDS011;14537;47.788;11.858;2024-01-10T09:54:22;30.90;;;10.73;;
26989;SDS011;14537;47.788;11.858;2024-01-10T09:56:51;36.97;;;12.75;;
26989;SDS011;14537;47.788;11.858;2024-01-10T09:59:18;29.02;;;11.93;;
26989;SDS011;14537;47.788;11.858;2024-01-10T10:01:43;41.25;;;13.68;;
26989;SDS011;14537;47.788;11.858;2024-01-10T10:04:09;42.10;;;11.85;;
26989;SDS011;14537;47.788;11.858;2024-01-10T10:06:37;41.30;;;14.15;;
26989;SDS011;14537;47.788;11.858;2024-01-10T10:09:03;36.50;;;13.38;;
26989;SDS011;14537;47.788;11.858;2024-01-10T10:11:29;41.45;;;13.77;;
26989;SDS011;14537;47.788;11.858;2024-01-10T10:13:55;45.70;;;13.77;;
26989;SDS011;14537;47.788;11.858;2024-01-10T10:16:24;38.38;;;12.63;;
26989;SDS011;14537;47.788;11.858;2024-01-10T10:18:51;37.20;;;12.50;;
26989;SDS011;14537;47.788;11.858;2024-01-10T10:21:22;31.75;;;12.85;;
26989;SDS011;14537;47.788;11.858;2024-01-10T10:26:24;37.50;;;12.10;;
26989;SDS011;14537;47.788;11.858;2024-01-10T10:28:52;38.30;;;12.95;;
26989;SDS011;14537;47.788;11.858;2024-01-10T10:31:19;37.97;;;12.63;;
26989;SDS011;14537;47.788;11.858;2024-01-10T10:33:45;42.97;;;13.75;;
26989;SDS011;14537;47.788;11.858;2024-01-10T10:36:13;44.60;;;14.60;;
26989;SDS011;14537;47.788;11.858;2024-01-10T10:38:39;42.38;;;12.57;;
26989;SDS011;14537;47.788;11.858;2024-01-10T10:41:05;47.83;;;13.27;;
26989;SDS011;14537;47.788;11.858;2024-01-10T10:43:35;46.85;;;13.65;;
26989;SDS011;14537;47.788;11.858;2024-01-10T10:46:02;39.28;;;12.90;;
26989;SDS011;14537;47.788;11.858;2024-01-10T10:48:31;55.22;;;14.30;;
26989;SDS011;14537;47.788;11.858;2024-01-10T10:53:39;46.42;;;14.65;;
26989;SDS011;14537;47.788;11.858;2024-01-10T10:56:10;39.22;;;13.82;;
26989;SDS011;14537;47.788;11.858;2024-01-10T10:58:40;44.78;;;15.48;;
26989;SDS011;14537;47.788;11.858;2024-01-10T11:01:07;36.35;;;12.95;;
26989;SDS011;14537;47.788;11.858;2024-01-10T11:03:36;45.33;;;14.00;;
26989;SDS011;14537;47.788;11.858;2024-01-10T11:06:07;47.00;;;15.18;;
26989;SDS011;14537;47.788;11.858;2024-01-10T11:08:52;38.38;;;13.00;;
26989;SDS011;14537;47.788;11.858;2024-01-10T11:25:17;53.13;;;15.85;;
26989;SDS011;14537;47.788;11.858;2024-01-10T11:27:44;42.65;;;14.82;;
26989;SDS011;14537;47.788;11.858;2024-01-10T11:30:12;66.18;;;20.27;;
26989;SDS011;14537;47.788;11.858;2024-01-10T11:32:38;60.88;;;20.08;;
26989;SDS011;14537;47.788;11.858;2024-01-10T11:35:19;58.25;;;19.77;;
26989;SDS011;14537;47.788;11.858;2024-01-10T11:37:49;53.05;;;18.02;;
26989;SDS011;14537;47.788;11.858;2024-01-10T11:40:16;61.05;;;16.83;;
26989;SDS011;14537;47.788;11.858;2024-01-10T11:43:12;45.55;;;14.45;;
26989;SDS011;14537;47.788;11.858;2024-01-10T11:45:38;53.58;;;17.45;;
26989;SDS011;14537;47.788;11.858;2024-01-10T11:48:28;40.05;;;13.93;;
26989;SDS011;14537;47.788;11.858;2024-01-10T11:50:54;53.05;;;15.48;;
26989;SDS011;14537;47.788;11.858;2024-01-10T11:53:40;43.00;;;14.75;;
26989;SDS011;14537;47.788;11.858;2024-01-10T11:56:13;45.40;;;15.07;;
26989;SDS011;14537;47.788;11.858;2024-01-10T11:58:52;45.90;;;15.30;;
26989;SDS011;14537;47.788;11.858;2024-01-10T12:01:31;46.67;;;14.10;;
26989;SDS011;14537;47.788;11.858;2024-01-10T12:03:57;41.35;;;14.65;;
26989;SDS011;14537;47.788;11.858;2024-01-10T12:06:23;42.85;;;14.95;;
26989;SDS011;14537;47.788;11.858;2024-01-10T12:08:50;49.47;;;15.88;;
26989;SDS011;14537;47.788;11.858;2024-01-10T12:11:16;47.22;;;15.52;;
26989;SDS011;14537;47.788;11.858;2024-01-10T12:13:42;41.80;;;14.25;;
26989;SDS011;14537;47.788;11.858;2024-01-10T12:16:08;46.00;;;15.95;;
26989;SDS011;14537;47.788;11.858;2024-01-10T12:18:35;53.00;;;17.95;;
26989;SDS011;14537;47.788;11.858;2024-01-10T12:21:01;51.20;;;17.73;;
26989;SDS011;14537;47.788;11.858;2024-01-10T12:23:26;51.55;;;16.95;;
26989;SDS011;14537;47.788;11.858;2024-01-10T12:25:56;50.72;;;15.60;;
26989;SDS011;14537;47.788;11.858;2024-01-10T12:28:26;46.80;;;15.68;;
26989;SDS011;14537;47.788;11.858;2024-01-10T12:30:52;52.55;;;16.38;;
26989;SDS011;14537;47.788;11.858;2024-01-10T12:33:21;56.85;;;18.05;;
26989;SDS011;14537;47.788;11.858;2024-01-10T12:36:07;55.13;;;17.17;;
26989;SDS011;14537;47.788;11.858;2024-01-10T12:38:35;52.75;;;16.85;;
26989;SDS011;14537;47.788;11.858;2024-01-10T12:41:01;50.95;;;16.70;;
26989;SDS011;14537;47.788;11.858;2024-01-10T12:43:28;49.05;;;16.90;;
26989;SDS011;14537;47.788;11.858;2024-01-10T12:46:03;59.58;;;17.85;;
26989;SDS011;14537;47.788;11.858;2024-01-10T12:48:36;55.85;;;17.98;;
26989;SDS011;14537;47.788;11.858;2024-01-10T12:51:04;59.65;;;17.88;;
26989;SDS011;14537;47.788;11.858;2024-01-10T12:53:36;60.80;;;19.08;;
26989;SDS011;14537;47.788;11.858;2024-01-10T12:56:03;50.08;;;17.17;;
26989;SDS011;14537;47.788;11.858;2024-01-10T12:58:31;49.33;;;17.23;;
26989;SDS011;14537;47.788;11.858;2024-01-10T13:00:57;53.50;;;15.85;;
26989;SDS011;14537;47.788;11.858;2024-01-10T13:03:23;56.58;;;19.05;;
26989;SDS011;14537;47.788;11.858;2024-01-10T13:05:49;67.70;;;17.83;;
26989;SDS011;14537;47.788;11.858;2024-01-10T13:08:15;52.17;;;16.33;;
26989;SDS011;14537;47.788;11.858;2024-01-10T13:10:42;52.22;;;17.17;;
26989;SDS011;14537;47.788;11.858;2024-01-10T13:13:08;54.97;;;16.20;;
26989;SDS011;14537;47.788;11.858;2024-01-10T13:15:33;47.60;;;16.00;;
26989;SDS011;14537;47.788;11.858;2024-01-10T13:17:59;56.55;;;16.95;;
26989;SDS011;14537;47.788;11.858;2024-01-10T13:20:25;62.53;;;17.50;;
26989;SDS011;14537;47.788;11.858;2024-01-10T13:22:51;63.58;;;17.48;;
26989;SDS011;14537;47.788;11.858;2024-01-10T13:25:16;67.65;;;19.60;;
26989;SDS011;14537;47.788;11.858;2024-01-10T13:27:42;61.70;;;20.17;;
26989;SDS011;14537;47.788;11.858;2024-01-10T13:30:08;58.55;;;17.23;;
26989;SDS011;14537;47.788;11.858;2024-01-10T13:32:37;61.13;;;18.25;;
26989;SDS011;14537;47.788;11.858;2024-01-10T13:35:03;51.38;;;16.08;;
26989;SDS011;14537;47.788;11.858;2024-01-10T13:37:29;59.20;;;17.02;;
26989;SDS011;14537;47.788;11.858;2024-01-10T13:39:56;44.67;;;16.02;;
26989;SDS011;14537;47.788;11.858;2024-01-10T13:42:22;67.45;;;18.17;;
26989;SDS011;14537;47.788;11.858;2024-01-10T13:44:48;114.90;;;27.88;;
26989;SDS011;14537;47.788;11.858;2024-01-10T13:47:14;70.50;;;20.40;;
26989;SDS011;14537;47.788;11.858;2024-01-10T13:49:42;71.07;;;20.42;;
26989;SDS011;14537;47.788;11.858;2024-01-10T13:52:08;62.05;;;19.13;;
26989;SDS011;14537;47.788;11.858;2024-01-10T13:54:33;69.05;;;18.20;;
26989;SDS011;14537;47.788;11.858;2024-01-10T13:56:59;62.85;;;19.48;;
26989;SDS011;14537;47.788;11.858;2024-01-10T13:59:24;75.10;;;20.15;;
26989;SDS011;14537;47.788;11.858;2024-01-10T14:01:50;64.55;;;20.02;;
26989;SDS011;14537;47.788;11.858;2024-01-10T14:04:16;63.35;;;18.50;;
26989;SDS011;14537;47.788;11.858;2024-01-10T14:06:41;57.80;;;18.90;;
26989;SDS011;14537;47.788;11.858;2024-01-10T14:09:07;54.88;;;18.52;;
26989;SDS011;14537;47.788;11.858;2024-01-10T14:11:34;57.42;;;18.10;;
26989;SDS011;14537;47.788;11.858;2024-01-10T14:14:00;53.40;;;17.10;;
26989;SDS011;14537;47.788;11.858;2024-01-10T14:16:26;58.10;;;18.65;;
26989;SDS011;14537;47.788;11.858;2024-01-10T14:18:52;79.20;;;25.35;;
26989;SDS011;14537;47.788;11.858;2024-01-10T14:21:20;60.25;;;20.67;;
26989;SDS011;14537;47.788;11.858;2024-01-10T14:23:46;58.13;;;20.50;;
26989;SDS011;14537;47.788;11.858;2024-01-10T14:26:12;60.67;;;19.77;;
26989;SDS011;14537;47.788;11.858;2024-01-10T14:28:39;56.55;;;17.90;;